sensor_id;sensor_type;location;lat;lon;timestamp;P1;durP1;ratioP1;P2;durP2;ratioP2
2848;SDS011;59355;52.416;13.412;2022-12-18T00:01:04;39.70;;;21.13;;
2848;SDS011;59355;52.416;13.412;2022-12-18T00:03:34;36.40;;;20.93;;
2848;SDS011;59355;52.416;13.412;2022-12-18T00:06:00;43.47;;;22.10;;
2848;SDS011;59355;52.416;13.412;2022-12-18T00:08:25;41.77;;;20.43;;
2848;SDS011;59355;52.416;13.412;2022-12-18T00:10:50;37.13;;;20.53;;
2848;SDS011;59355;52.416;13.412;2022-12-18T00:13:16;44.63;;;20.37;;
2848;SDS011;59355;52.416;13.412;2022-12-18T00:15:41;42.10;;;20.80;;
2848;SDS011;59355;52.416;13.412;2022-12-18T00:18:06;40.87;;;21.10;;
2848;SDS011;59355;52.416;13.412;2022-12-18T00:20:35;31.80;;;18.03;;
2848;SDS011;59355;52.416;13.412;2022-12-18T00:23:03;37.13;;;20.80;;
2848;SDS011;59355;52.416;13.412;2022-12-18T00:25:28;34.93;;;19.50;;
2848;SDS011;59355;52.416;13.412;2022-12-18T00:27:54;36.00;;;18.47;;
2848;SDS011;59355;52.416;13.412;2022-12-18T00:30:19;33.93;;;18.13;;
2848;SDS011;59355;52.416;13.412;2022-12-18T00:32:44;37.90;;;17.20;;
2848;SDS011;59355;52.416;13.412;2022-12-18T00:35:10;38.20;;;20.03;;
2848;SDS011;59355;52.416;13.412;2022-12-18T00:37:35;40.13;;;19.90;;
2848;SDS011;59355;52.416;13.412;2022-12-18T00:40:00;38.33;;;18.63;;
2848;SDS011;59355;52.416;13.412;2022-12-18T00:42:26;34.53;;;18.90;;
2848;SDS011;59355;52.416;13.412;2022-12-18T00:45:10;42.33;;;19.53;;
2848;SDS011;59355;52.416;13.412;2022-12-18T00:47:35;44.50;;;20.50;;
2848;SDS011;59355;52.416;13.412;2022-12-18T00:50:00;34.03;;;18.77;;
2848;SDS011;59355;52.416;13.412;2022-12-18T00:52:26;38.67;;;19.70;;
2848;SDS011;59355;52.416;13.412;2022-12-18T00:54:51;34.90;;;20.53;;
2848;SDS011;59355;52.416;13.412;2022-12-18T00:57:16;39.53;;;20.47;;
2848;SDS011;59355;52.416;13.412;2022-12-18T00:59:42;36.70;;;20.23;;
2848;SDS011;59355;52.416;13.412;2022-12-18T01:02:07;35.93;;;19.03;;
2848;SDS011;59355;52.416;13.412;2022-12-18T01:04:32;36.17;;;17.83;;
2848;SDS011;59355;52.416;13.412;2022-12-18T01:06:58;35.30;;;18.20;;
2848;SDS011;59355;52.416;13.412;2022-12-18T01:09:23;40.17;;;19.13;;
2848;SDS011;59355;52.416;13.412;2022-12-18T01:11:48;37.60;;;18.80;;
2848;SDS011;59355;52.416;13.412;2022-12-18T01:14:14;37.67;;;18.60;;
2848;SDS011;59355;52.416;13.412;2022-12-18T01:16:39;34.00;;;17.83;;
2848;SDS011;59355;52.416;13.412;2022-12-18T01:19:05;34.03;;;17.23;;
2848;SDS011;59355;52.416;13.412;2022-12-18T01:21:30;49.93;;;20.13;;
2848;SDS011;59355;52.416;13.412;2022-12-18T01:23:56;36.37;;;20.50;;
2848;SDS011;59355;52.416;13.412;2022-12-18T01:26:22;38.63;;;21.10;;
2848;SDS011;59355;52.416;13.412;2022-12-18T01:28:47;38.67;;;23.10;;
2848;SDS011;59355;52.416;13.412;2022-12-18T01:31:14;44.60;;;21.87;;
2848;SDS011;59355;52.416;13.412;2022-12-18T01:33:44;42.07;;;21.40;;
2848;SDS011;59355;52.416;13.412;2022-12-18T01:36:14;43.83;;;22.90;;
2848;SDS011;59355;52.416;13.412;2022-12-18T01:38:40;46.03;;;24.27;;
2848;SDS011;59355;52.416;13.412;2022-12-18T01:41:05;44.27;;;23.53;;
2848;SDS011;59355;52.416;13.412;2022-12-18T01:46:24;51.00;;;23.87;;
2848;SDS011;59355;52.416;13.412;2022-12-18T01:48:51;52.47;;;26.13;;
2848;SDS011;59355;52.416;13.412;2022-12-18T01:51:19;53.30;;;24.30;;
2848;SDS011;59355;52.416;13.412;2022-12-18T01:53:45;50.60;;;26.97;;
2848;SDS011;59355;52.416;13.412;2022-12-18T01:56:12;50.67;;;25.10;;
2848;SDS011;59355;52.416;13.412;2022-12-18T01:58:41;49.37;;;26.07;;
2848;SDS011;59355;52.416;13.412;2022-12-18T02:01:11;53.80;;;24.83;;
2848;SDS011;59355;52.416;13.412;2022-12-18T02:03:37;62.37;;;28.00;;
2848;SDS011;59355;52.416;13.412;2022-12-18T02:08:49;54.17;;;26.57;;
2848;SDS011;59355;52.416;13.412;2022-12-18T02:11:31;56.80;;;25.47;;
2848;SDS011;59355;52.416;13.412;2022-12-18T02:14:14;55.57;;;28.60;;
2848;SDS011;59355;52.416;13.412;2022-12-18T02:17:02;54.23;;;27.77;;
2848;SDS011;59355;52.416;13.412;2022-12-18T02:19:41;52.97;;;27.47;;
2848;SDS011;59355;52.416;13.412;2022-12-18T02:22:29;61.67;;;27.90;;
2848;SDS011;59355;52.416;13.412;2022-12-18T02:27:54;58.67;;;29.13;;
2848;SDS011;59355;52.416;13.412;2022-12-18T02:30:24;58.10;;;25.67;;
2848;SDS011;59355;52.416;13.412;2022-12-18T02:32:50;61.80;;;28.87;;
2848;SDS011;59355;52.416;13.412;2022-12-18T02:35:19;52.30;;;25.50;;
2848;SDS011;59355;52.416;13.412;2022-12-18T02:37:47;56.23;;;28.53;;
2848;SDS011;59355;52.416;13.412;2022-12-18T02:40:12;63.77;;;29.00;;
2848;SDS011;59355;52.416;13.412;2022-12-18T02:42:39;58.00;;;27.97;;
2848;SDS011;59355;52.416;13.412;2022-12-18T02:45:04;50.83;;;25.90;;
2848;SDS011;59355;52.416;13.412;2022-12-18T02:47:31;60.60;;;27.00;;
2848;SDS011;59355;52.416;13.412;2022-12-18T02:50:02;53.33;;;27.57;;
2848;SDS011;59355;52.416;13.412;2022-12-18T02:52:31;51.50;;;24.93;;
2848;SDS011;59355;52.416;13.412;2022-12-18T02:55:08;53.13;;;27.73;;
2848;SDS011;59355;52.416;13.412;2022-12-18T02:57:48;50.17;;;27.23;;
2848;SDS011;59355;52.416;13.412;2022-12-18T03:00:19;43.40;;;23.33;;
2848;SDS011;59355;52.416;13.412;2022-12-18T03:05:23;56.13;;;25.77;;
2848;SDS011;59355;52.416;13.412;2022-12-18T03:07:56;60.70;;;27.40;;
2848;SDS011;59355;52.416;13.412;2022-12-18T03:10:28;57.23;;;27.57;;
2848;SDS011;59355;52.416;13.412;2022-12-18T03:13:04;53.13;;;27.20;;
2848;SDS011;59355;52.416;13.412;2022-12-18T03:15:37;59.97;;;26.97;;
2848;SDS011;59355;52.416;13.412;2022-12-18T03:18:05;57.17;;;27.93;;
2848;SDS011;59355;52.416;13.412;2022-12-18T03:20:34;64.97;;;32.00;;
2848;SDS011;59355;52.416;13.412;2022-12-18T03:23:02;63.73;;;30.03;;
2848;SDS011;59355;52.416;13.412;2022-12-18T03:25:31;62.57;;;31.63;;
2848;SDS011;59355;52.416;13.412;2022-12-18T03:27:59;69.13;;;30.70;;
2848;SDS011;59355;52.416;13.412;2022-12-18T03:30:26;66.07;;;30.60;;
2848;SDS011;59355;52.416;13.412;2022-12-18T03:32:56;66.40;;;31.30;;
2848;SDS011;59355;52.416;13.412;2022-12-18T03:35:26;72.83;;;30.20;;
2848;SDS011;59355;52.416;13.412;2022-12-18T03:37:54;73.80;;;32.03;;
2848;SDS011;59355;52.416;13.412;2022-12-18T03:40:20;54.33;;;27.20;;
2848;SDS011;59355;52.416;13.412;2022-12-18T03:42:52;65.47;;;28.03;;
2848;SDS011;59355;52.416;13.412;2022-12-18T03:45:26;61.87;;;29.87;;
2848;SDS011;59355;52.416;13.412;2022-12-18T03:50:34;61.83;;;29.20;;
2848;SDS011;59355;52.416;13.412;2022-12-18T03:53:39;58.20;;;28.00;;
2848;SDS011;59355;52.416;13.412;2022-12-18T03:56:03;52.20;;;26.60;;
2848;SDS011;59355;52.416;13.412;2022-12-18T03:58:29;53.90;;;26.30;;
2848;SDS011;59355;52.416;13.412;2022-12-18T04:00:57;47.67;;;22.73;;
2848;SDS011;59355;52.416;13.412;2022-12-18T04:03:25;51.33;;;23.43;;
2848;SDS011;59355;52.416;13.412;2022-12-18T04:05:51;51.93;;;24.87;;
2848;SDS011;59355;52.416;13.412;2022-12-18T04:08:17;55.43;;;25.37;;
2848;SDS011;59355;52.416;13.412;2022-12-18T04:10:43;45.83;;;22.93;;
2848;SDS011;59355;52.416;13.412;2022-12-18T04:13:09;42.63;;;22.07;;
2848;SDS011;59355;52.416;13.412;2022-12-18T04:15:34;50.23;;;23.90;;
2848;SDS011;59355;52.416;13.412;2022-12-18T04:18:00;38.57;;;22.53;;
2848;SDS011;59355;52.416;13.412;2022-12-18T04:20:26;39.23;;;22.23;;
2848;SDS011;59355;52.416;13.412;2022-12-18T04:22:52;39.37;;;19.30;;
2848;SDS011;59355;52.416;13.412;2022-12-18T04:25:17;47.70;;;20.83;;
2848;SDS011;59355;52.416;13.412;2022-12-18T04:27:42;39.20;;;20.90;;
2848;SDS011;59355;52.416;13.412;2022-12-18T04:30:08;40.77;;;20.60;;
2848;SDS011;59355;52.416;13.412;2022-12-18T04:32:34;43.67;;;23.37;;
2848;SDS011;59355;52.416;13.412;2022-12-18T04:34:59;47.40;;;22.90;;
2848;SDS011;59355;52.416;13.412;2022-12-18T04:37:24;46.77;;;22.30;;
2848;SDS011;59355;52.416;13.412;2022-12-18T04:39:50;44.03;;;21.97;;
2848;SDS011;59355;52.416;13.412;2022-12-18T04:42:15;44.90;;;22.70;;
2848;SDS011;59355;52.416;13.412;2022-12-18T04:44:40;44.00;;;20.47;;
2848;SDS011;59355;52.416;13.412;2022-12-18T04:47:06;43.50;;;21.90;;
2848;SDS011;59355;52.416;13.412;2022-12-18T04:49:32;44.27;;;20.40;;
2848;SDS011;59355;52.416;13.412;2022-12-18T04:51:57;43.20;;;22.87;;
2848;SDS011;59355;52.416;13.412;2022-12-18T04:54:23;40.13;;;23.67;;
2848;SDS011;59355;52.416;13.412;2022-12-18T04:56:48;42.80;;;20.80;;
2848;SDS011;59355;52.416;13.412;2022-12-18T04:59:13;49.83;;;23.30;;
2848;SDS011;59355;52.416;13.412;2022-12-18T05:01:38;43.57;;;21.00;;
2848;SDS011;59355;52.416;13.412;2022-12-18T05:04:04;43.33;;;21.23;;
2848;SDS011;59355;52.416;13.412;2022-12-18T05:06:29;43.33;;;21.43;;
2848;SDS011;59355;52.416;13.412;2022-12-18T05:08:55;39.10;;;20.50;;
2848;SDS011;59355;52.416;13.412;2022-12-18T05:11:20;45.83;;;20.97;;
2848;SDS011;59355;52.416;13.412;2022-12-18T05:13:45;42.90;;;19.30;;
2848;SDS011;59355;52.416;13.412;2022-12-18T05:16:12;47.83;;;23.13;;
2848;SDS011;59355;52.416;13.412;2022-12-18T05:18:37;49.83;;;21.47;;
2848;SDS011;59355;52.416;13.412;2022-12-18T05:21:03;51.00;;;24.03;;
2848;SDS011;59355;52.416;13.412;2022-12-18T05:23:29;50.00;;;24.63;;
2848;SDS011;59355;52.416;13.412;2022-12-18T05:25:55;45.50;;;21.87;;
2848;SDS011;59355;52.416;13.412;2022-12-18T05:28:22;55.50;;;23.73;;
2848;SDS011;59355;52.416;13.412;2022-12-18T05:30:52;45.73;;;26.43;;
2848;SDS011;59355;52.416;13.412;2022-12-18T05:33:19;52.33;;;24.60;;
2848;SDS011;59355;52.416;13.412;2022-12-18T05:35:49;46.10;;;21.47;;
2848;SDS011;59355;52.416;13.412;2022-12-18T05:38:15;54.80;;;24.70;;
2848;SDS011;59355;52.416;13.412;2022-12-18T05:40:41;45.97;;;22.90;;
2848;SDS011;59355;52.416;13.412;2022-12-18T05:43:08;50.10;;;23.20;;
2848;SDS011;59355;52.416;13.412;2022-12-18T05:45:36;46.20;;;22.00;;
2848;SDS011;59355;52.416;13.412;2022-12-18T05:48:03;51.70;;;25.00;;
2848;SDS011;59355;52.416;13.412;2022-12-18T05:50:28;64.70;;;27.67;;
2848;SDS011;59355;52.416;13.412;2022-12-18T05:52:53;51.00;;;26.80;;
2848;SDS011;59355;52.416;13.412;2022-12-18T05:55:19;46.03;;;23.93;;
2848;SDS011;59355;52.416;13.412;2022-12-18T05:57:44;52.80;;;24.27;;
2848;SDS011;59355;52.416;13.412;2022-12-18T06:00:09;52.87;;;25.30;;
2848;SDS011;59355;52.416;13.412;2022-12-18T06:02:35;56.10;;;26.20;;
2848;SDS011;59355;52.416;13.412;2022-12-18T06:05:01;49.17;;;23.03;;
2848;SDS011;59355;52.416;13.412;2022-12-18T06:07:26;54.43;;;25.27;;
2848;SDS011;59355;52.416;13.412;2022-12-18T06:09:51;41.10;;;23.00;;
2848;SDS011;59355;52.416;13.412;2022-12-18T06:12:16;46.90;;;23.90;;
2848;SDS011;59355;52.416;13.412;2022-12-18T06:14:42;41.73;;;22.90;;
2848;SDS011;59355;52.416;13.412;2022-12-18T06:17:07;47.70;;;24.13;;
2848;SDS011;59355;52.416;13.412;2022-12-18T06:19:32;38.30;;;22.10;;
2848;SDS011;59355;52.416;13.412;2022-12-18T06:21:58;45.90;;;24.53;;
2848;SDS011;59355;52.416;13.412;2022-12-18T06:24:23;49.27;;;22.83;;
2848;SDS011;59355;52.416;13.412;2022-12-18T06:26:49;46.90;;;23.90;;
2848;SDS011;59355;52.416;13.412;2022-12-18T06:29:14;44.63;;;23.60;;
2848;SDS011;59355;52.416;13.412;2022-12-18T06:31:39;44.20;;;22.83;;
2848;SDS011;59355;52.416;13.412;2022-12-18T06:34:05;50.37;;;23.67;;
2848;SDS011;59355;52.416;13.412;2022-12-18T06:36:30;46.27;;;23.03;;
2848;SDS011;59355;52.416;13.412;2022-12-18T06:38:56;43.23;;;21.53;;
2848;SDS011;59355;52.416;13.412;2022-12-18T06:41:22;49.10;;;24.57;;
2848;SDS011;59355;52.416;13.412;2022-12-18T06:43:47;46.67;;;24.90;;
2848;SDS011;59355;52.416;13.412;2022-12-18T06:46:12;43.20;;;21.00;;
2848;SDS011;59355;52.416;13.412;2022-12-18T06:48:38;45.40;;;21.20;;
2848;SDS011;59355;52.416;13.412;2022-12-18T06:51:03;46.93;;;22.07;;
2848;SDS011;59355;52.416;13.412;2022-12-18T06:53:29;55.30;;;23.63;;
2848;SDS011;59355;52.416;13.412;2022-12-18T06:56:01;49.70;;;22.33;;
2848;SDS011;59355;52.416;13.412;2022-12-18T06:58:31;38.63;;;20.27;;
2848;SDS011;59355;52.416;13.412;2022-12-18T07:01:00;37.20;;;20.70;;
2848;SDS011;59355;52.416;13.412;2022-12-18T07:03:26;42.30;;;22.23;;
2848;SDS011;59355;52.416;13.412;2022-12-18T07:05:52;40.77;;;20.83;;
2848;SDS011;59355;52.416;13.412;2022-12-18T07:08:17;45.40;;;20.17;;
2848;SDS011;59355;52.416;13.412;2022-12-18T07:10:43;37.93;;;20.03;;
2848;SDS011;59355;52.416;13.412;2022-12-18T07:13:08;42.97;;;22.73;;
2848;SDS011;59355;52.416;13.412;2022-12-18T07:15:33;40.63;;;22.00;;
2848;SDS011;59355;52.416;13.412;2022-12-18T07:17:59;43.60;;;21.67;;
2848;SDS011;59355;52.416;13.412;2022-12-18T07:20:24;52.57;;;20.50;;
2848;SDS011;59355;52.416;13.412;2022-12-18T07:22:49;47.10;;;21.83;;
2848;SDS011;59355;52.416;13.412;2022-12-18T07:25:15;54.30;;;24.23;;
2848;SDS011;59355;52.416;13.412;2022-12-18T07:27:40;56.10;;;24.97;;
2848;SDS011;59355;52.416;13.412;2022-12-18T07:30:05;51.93;;;25.80;;
2848;SDS011;59355;52.416;13.412;2022-12-18T07:32:31;45.83;;;24.20;;
2848;SDS011;59355;52.416;13.412;2022-12-18T07:34:56;52.13;;;23.87;;
2848;SDS011;59355;52.416;13.412;2022-12-18T07:37:22;51.07;;;24.80;;
2848;SDS011;59355;52.416;13.412;2022-12-18T07:39:47;48.37;;;23.10;;
2848;SDS011;59355;52.416;13.412;2022-12-18T07:42:12;52.60;;;26.73;;
2848;SDS011;59355;52.416;13.412;2022-12-18T07:44:56;42.03;;;22.73;;
2848;SDS011;59355;52.416;13.412;2022-12-18T07:47:22;45.17;;;22.47;;
2848;SDS011;59355;52.416;13.412;2022-12-18T07:49:47;49.07;;;23.33;;
2848;SDS011;59355;52.416;13.412;2022-12-18T07:52:12;51.07;;;23.93;;
2848;SDS011;59355;52.416;13.412;2022-12-18T07:54:38;58.07;;;25.67;;
2848;SDS011;59355;52.416;13.412;2022-12-18T07:57:04;54.33;;;25.17;;
2848;SDS011;59355;52.416;13.412;2022-12-18T07:59:29;45.73;;;22.77;;
2848;SDS011;59355;52.416;13.412;2022-12-18T08:01:54;40.00;;;22.60;;
2848;SDS011;59355;52.416;13.412;2022-12-18T08:04:20;47.37;;;24.30;;
2848;SDS011;59355;52.416;13.412;2022-12-18T08:06:45;44.57;;;22.80;;
2848;SDS011;59355;52.416;13.412;2022-12-18T08:09:11;61.07;;;25.03;;
2848;SDS011;59355;52.416;13.412;2022-12-18T08:11:36;38.93;;;20.67;;
2848;SDS011;59355;52.416;13.412;2022-12-18T08:14:01;42.10;;;21.03;;
2848;SDS011;59355;52.416;13.412;2022-12-18T08:16:27;49.40;;;23.40;;
2848;SDS011;59355;52.416;13.412;2022-12-18T08:18:52;39.77;;;19.80;;
2848;SDS011;59355;52.416;13.412;2022-12-18T08:21:23;47.13;;;22.50;;
2848;SDS011;59355;52.416;13.412;2022-12-18T08:23:49;52.60;;;25.80;;
2848;SDS011;59355;52.416;13.412;2022-12-18T08:26:15;48.27;;;23.93;;
2848;SDS011;59355;52.416;13.412;2022-12-18T08:28:41;46.20;;;24.30;;
2848;SDS011;59355;52.416;13.412;2022-12-18T08:31:07;49.93;;;23.23;;
2848;SDS011;59355;52.416;13.412;2022-12-18T08:33:33;43.93;;;19.60;;
2848;SDS011;59355;52.416;13.412;2022-12-18T08:35:59;45.27;;;22.73;;
2848;SDS011;59355;52.416;13.412;2022-12-18T08:38:25;42.97;;;21.03;;
2848;SDS011;59355;52.416;13.412;2022-12-18T08:40:57;43.20;;;20.27;;
2848;SDS011;59355;52.416;13.412;2022-12-18T08:43:24;37.87;;;20.63;;
2848;SDS011;59355;52.416;13.412;2022-12-18T08:46:08;41.00;;;20.67;;
2848;SDS011;59355;52.416;13.412;2022-12-18T08:48:33;43.23;;;23.03;;
2848;SDS011;59355;52.416;13.412;2022-12-18T08:50:59;37.20;;;19.80;;
2848;SDS011;59355;52.416;13.412;2022-12-18T08:53:24;37.60;;;22.17;;
2848;SDS011;59355;52.416;13.412;2022-12-18T08:55:50;41.90;;;19.70;;
2848;SDS011;59355;52.416;13.412;2022-12-18T08:58:16;43.13;;;20.87;;
2848;SDS011;59355;52.416;13.412;2022-12-18T09:00:41;32.37;;;19.73;;
2848;SDS011;59355;52.416;13.412;2022-12-18T09:03:13;37.37;;;19.80;;
2848;SDS011;59355;52.416;13.412;2022-12-18T09:05:42;34.20;;;18.50;;
2848;SDS011;59355;52.416;13.412;2022-12-18T09:08:08;37.70;;;19.13;;
2848;SDS011;59355;52.416;13.412;2022-12-18T09:10:34;39.90;;;22.93;;
2848;SDS011;59355;52.416;13.412;2022-12-18T09:12:59;41.80;;;20.23;;
2848;SDS011;59355;52.416;13.412;2022-12-18T09:15:25;31.00;;;18.90;;
2848;SDS011;59355;52.416;13.412;2022-12-18T09:17:50;40.17;;;19.63;;
2848;SDS011;59355;52.416;13.412;2022-12-18T09:20:17;37.63;;;20.37;;
2848;SDS011;59355;52.416;13.412;2022-12-18T09:22:43;38.97;;;21.87;;
2848;SDS011;59355;52.416;13.412;2022-12-18T09:25:08;42.03;;;21.30;;
2848;SDS011;59355;52.416;13.412;2022-12-18T09:27:34;39.57;;;18.27;;
2848;SDS011;59355;52.416;13.412;2022-12-18T09:29:59;41.17;;;19.37;;
2848;SDS011;59355;52.416;13.412;2022-12-18T09:32:25;39.90;;;20.80;;
2848;SDS011;59355;52.416;13.412;2022-12-18T09:34:50;42.53;;;21.70;;
2848;SDS011;59355;52.416;13.412;2022-12-18T09:37:15;37.93;;;20.27;;
2848;SDS011;59355;52.416;13.412;2022-12-18T09:39:41;44.50;;;21.23;;
2848;SDS011;59355;52.416;13.412;2022-12-18T09:42:06;41.70;;;20.70;;
2848;SDS011;59355;52.416;13.412;2022-12-18T09:44:43;32.67;;;20.43;;
2848;SDS011;59355;52.416;13.412;2022-12-18T09:50:00;44.23;;;20.10;;
2848;SDS011;59355;52.416;13.412;2022-12-18T09:52:27;44.30;;;21.10;;
2848;SDS011;59355;52.416;13.412;2022-12-18T09:58:01;43.63;;;20.30;;
2848;SDS011;59355;52.416;13.412;2022-12-18T10:00:30;36.73;;;20.17;;
2848;SDS011;59355;52.416;13.412;2022-12-18T10:02:59;48.77;;;21.63;;
2848;SDS011;59355;52.416;13.412;2022-12-18T10:08:13;39.90;;;23.10;;
2848;SDS011;59355;52.416;13.412;2022-12-18T10:10:46;43.00;;;21.03;;
2848;SDS011;59355;52.416;13.412;2022-12-18T10:21:31;45.33;;;22.40;;
2848;SDS011;59355;52.416;13.412;2022-12-18T10:24:33;43.57;;;21.90;;
2848;SDS011;59355;52.416;13.412;2022-12-18T10:27:09;46.97;;;23.43;;
2848;SDS011;59355;52.416;13.412;2022-12-18T10:29:40;48.23;;;24.10;;
2848;SDS011;59355;52.416;13.412;2022-12-18T10:32:06;45.03;;;22.73;;
2848;SDS011;59355;52.416;13.412;2022-12-18T10:34:32;64.33;;;39.37;;
2848;SDS011;59355;52.416;13.412;2022-12-18T10:36:57;46.50;;;21.63;;
2848;SDS011;59355;52.416;13.412;2022-12-18T10:39:25;42.73;;;22.67;;
2848;SDS011;59355;52.416;13.412;2022-12-18T10:42:10;43.03;;;24.77;;
2848;SDS011;59355;52.416;13.412;2022-12-18T10:44:39;39.90;;;20.17;;
2848;SDS011;59355;52.416;13.412;2022-12-18T10:47:05;37.80;;;23.10;;
2848;SDS011;59355;52.416;13.412;2022-12-18T10:49:35;58.20;;;23.23;;
2848;SDS011;59355;52.416;13.412;2022-12-18T10:52:04;38.43;;;23.77;;
2848;SDS011;59355;52.416;13.412;2022-12-18T10:54:32;45.77;;;24.57;;
2848;SDS011;59355;52.416;13.412;2022-12-18T10:57:14;50.03;;;23.37;;
2848;SDS011;59355;52.416;13.412;2022-12-18T10:59:53;48.13;;;23.60;;
2848;SDS011;59355;52.416;13.412;2022-12-18T11:02:53;39.60;;;23.57;;
2848;SDS011;59355;52.416;13.412;2022-12-18T11:07:51;43.17;;;20.57;;
2848;SDS011;59355;52.416;13.412;2022-12-18T11:10:19;44.37;;;22.73;;
2848;SDS011;59355;52.416;13.412;2022-12-18T11:12:46;39.97;;;21.20;;
2848;SDS011;59355;52.416;13.412;2022-12-18T11:15:29;47.40;;;22.27;;
2848;SDS011;59355;52.416;13.412;2022-12-18T11:17:55;32.20;;;19.47;;
2848;SDS011;59355;52.416;13.412;2022-12-18T11:20:29;28.40;;;18.93;;
2848;SDS011;59355;52.416;13.412;2022-12-18T11:22:58;34.10;;;18.90;;
2848;SDS011;59355;52.416;13.412;2022-12-18T11:25:25;39.80;;;19.70;;
2848;SDS011;59355;52.416;13.412;2022-12-18T11:30:21;37.60;;;18.80;;
2848;SDS011;59355;52.416;13.412;2022-12-18T11:36:06;39.20;;;20.60;;
2848;SDS011;59355;52.416;13.412;2022-12-18T11:38:37;36.87;;;20.47;;
2848;SDS011;59355;52.416;13.412;2022-12-18T11:41:16;36.40;;;20.40;;
2848;SDS011;59355;52.416;13.412;2022-12-18T11:43:52;31.83;;;19.67;;
2848;SDS011;59355;52.416;13.412;2022-12-18T11:46:27;37.03;;;20.33;;
2848;SDS011;59355;52.416;13.412;2022-12-18T11:52:09;35.70;;;20.40;;
2848;SDS011;59355;52.416;13.412;2022-12-18T11:54:43;43.10;;;22.30;;
2848;SDS011;59355;52.416;13.412;2022-12-18T12:00:18;34.90;;;19.60;;
2848;SDS011;59355;52.416;13.412;2022-12-18T12:03:27;39.23;;;21.57;;
2848;SDS011;59355;52.416;13.412;2022-12-18T12:05:50;49.43;;;23.10;;
2848;SDS011;59355;52.416;13.412;2022-12-18T12:11:21;44.10;;;21.40;;
2848;SDS011;59355;52.416;13.412;2022-12-18T12:17:03;40.50;;;22.90;;
2848;SDS011;59355;52.416;13.412;2022-12-18T12:19:34;36.43;;;22.67;;
2848;SDS011;59355;52.416;13.412;2022-12-18T12:22:04;36.87;;;22.23;;
2848;SDS011;59355;52.416;13.412;2022-12-18T12:25:01;39.07;;;20.97;;
2848;SDS011;59355;52.416;13.412;2022-12-18T12:27:41;35.97;;;21.83;;
2848;SDS011;59355;52.416;13.412;2022-12-18T12:30:21;37.10;;;21.80;;
2848;SDS011;59355;52.416;13.412;2022-12-18T12:38:35;33.53;;;19.40;;
2848;SDS011;59355;52.416;13.412;2022-12-18T12:41:06;38.27;;;22.87;;
2848;SDS011;59355;52.416;13.412;2022-12-18T12:43:54;37.90;;;21.60;;
2848;SDS011;59355;52.416;13.412;2022-12-18T12:46:22;43.00;;;21.47;;
2848;SDS011;59355;52.416;13.412;2022-12-18T12:48:52;43.43;;;20.90;;
2848;SDS011;59355;52.416;13.412;2022-12-18T12:51:24;32.37;;;19.90;;
2848;SDS011;59355;52.416;13.412;2022-12-18T12:53:51;41.80;;;24.03;;
2848;SDS011;59355;52.416;13.412;2022-12-18T12:56:18;39.10;;;25.53;;
2848;SDS011;59355;52.416;13.412;2022-12-18T13:01:27;35.43;;;20.67;;
2848;SDS011;59355;52.416;13.412;2022-12-18T13:09:19;36.90;;;21.80;;
2848;SDS011;59355;52.416;13.412;2022-12-18T13:11:44;37.90;;;21.33;;
2848;SDS011;59355;52.416;13.412;2022-12-18T13:19:44;35.10;;;23.10;;
2848;SDS011;59355;52.416;13.412;2022-12-18T13:22:55;37.50;;;23.47;;
2848;SDS011;59355;52.416;13.412;2022-12-18T13:25:01;37.47;;;22.77;;
2848;SDS011;59355;52.416;13.412;2022-12-18T13:27:45;38.77;;;29.03;;
2848;SDS011;59355;52.416;13.412;2022-12-18T13:35:40;41.23;;;25.43;;
2848;SDS011;59355;52.416;13.412;2022-12-18T13:38:20;40.40;;;24.57;;
2848;SDS011;59355;52.416;13.412;2022-12-18T13:41:03;38.13;;;22.17;;
2848;SDS011;59355;52.416;13.412;2022-12-18T13:43:52;50.83;;;27.57;;
2848;SDS011;59355;52.416;13.412;2022-12-18T13:46:20;38.23;;;24.27;;
2848;SDS011;59355;52.416;13.412;2022-12-18T13:49:06;43.63;;;24.53;;
2848;SDS011;59355;52.416;13.412;2022-12-18T13:51:34;41.13;;;23.17;;
2848;SDS011;59355;52.416;13.412;2022-12-18T13:54:01;44.10;;;26.37;;
2848;SDS011;59355;52.416;13.412;2022-12-18T13:56:44;42.63;;;27.30;;
2848;SDS011;59355;52.416;13.412;2022-12-18T13:59:15;45.47;;;27.20;;
2848;SDS011;59355;52.416;13.412;2022-12-18T14:01:58;53.57;;;29.90;;
2848;SDS011;59355;52.416;13.412;2022-12-18T14:04:28;55.20;;;28.97;;
2848;SDS011;59355;52.416;13.412;2022-12-18T14:06:56;54.07;;;31.80;;
2848;SDS011;59355;52.416;13.412;2022-12-18T14:09:28;52.37;;;29.37;;
2848;SDS011;59355;52.416;13.412;2022-12-18T14:11:55;58.63;;;31.70;;
2848;SDS011;59355;52.416;13.412;2022-12-18T14:14:41;60.63;;;32.67;;
2848;SDS011;59355;52.416;13.412;2022-12-18T14:17:11;56.40;;;27.43;;
2848;SDS011;59355;52.416;13.412;2022-12-18T14:19:36;62.00;;;34.10;;
2848;SDS011;59355;52.416;13.412;2022-12-18T14:22:02;67.30;;;32.10;;
2848;SDS011;59355;52.416;13.412;2022-12-18T14:24:28;54.77;;;31.60;;
2848;SDS011;59355;52.416;13.412;2022-12-18T14:26:56;52.03;;;28.37;;
2848;SDS011;59355;52.416;13.412;2022-12-18T14:29:38;50.33;;;29.87;;
2848;SDS011;59355;52.416;13.412;2022-12-18T14:32:11;50.13;;;27.67;;
2848;SDS011;59355;52.416;13.412;2022-12-18T14:34:42;42.37;;;27.90;;
2848;SDS011;59355;52.416;13.412;2022-12-18T14:37:12;46.30;;;28.07;;
2848;SDS011;59355;52.416;13.412;2022-12-18T14:39:39;43.93;;;27.20;;
2848;SDS011;59355;52.416;13.412;2022-12-18T14:42:04;40.50;;;24.47;;
2848;SDS011;59355;52.416;13.412;2022-12-18T14:44:30;38.00;;;25.10;;
2848;SDS011;59355;52.416;13.412;2022-12-18T14:46:55;36.37;;;23.67;;
2848;SDS011;59355;52.416;13.412;2022-12-18T14:49:33;40.60;;;24.30;;
2848;SDS011;59355;52.416;13.412;2022-12-18T14:52:06;40.63;;;23.60;;
2848;SDS011;59355;52.416;13.412;2022-12-18T14:54:38;36.60;;;22.90;;
2848;SDS011;59355;52.416;13.412;2022-12-18T14:59:48;27.73;;;18.17;;
2848;SDS011;59355;52.416;13.412;2022-12-18T15:02:21;33.20;;;21.30;;
2848;SDS011;59355;52.416;13.412;2022-12-18T15:04:48;30.50;;;20.33;;
2848;SDS011;59355;52.416;13.412;2022-12-18T15:07:25;30.60;;;19.80;;
2848;SDS011;59355;52.416;13.412;2022-12-18T15:10:02;27.80;;;18.13;;
2848;SDS011;59355;52.416;13.412;2022-12-18T15:12:48;33.27;;;17.77;;
2848;SDS011;59355;52.416;13.412;2022-12-18T15:18:02;30.40;;;19.27;;
2848;SDS011;59355;52.416;13.412;2022-12-18T15:20:31;27.17;;;18.17;;
2848;SDS011;59355;52.416;13.412;2022-12-18T15:23:03;27.93;;;17.70;;
2848;SDS011;59355;52.416;13.412;2022-12-18T15:25:32;28.27;;;19.30;;
2848;SDS011;59355;52.416;13.412;2022-12-18T15:28:01;28.77;;;18.10;;
2848;SDS011;59355;52.416;13.412;2022-12-18T15:30:27;30.33;;;19.57;;
2848;SDS011;59355;52.416;13.412;2022-12-18T15:32:52;32.03;;;18.97;;
2848;SDS011;59355;52.416;13.412;2022-12-18T15:35:56;31.27;;;20.20;;
2848;SDS011;59355;52.416;13.412;2022-12-18T15:38:25;34.73;;;24.10;;
2848;SDS011;59355;52.416;13.412;2022-12-18T15:40:51;29.00;;;20.63;;
2848;SDS011;59355;52.416;13.412;2022-12-18T15:43:21;33.30;;;22.40;;
2848;SDS011;59355;52.416;13.412;2022-12-18T15:46:03;38.20;;;21.67;;
2848;SDS011;59355;52.416;13.412;2022-12-18T15:48:32;35.30;;;22.30;;
2848;SDS011;59355;52.416;13.412;2022-12-18T15:50:59;31.77;;;20.53;;
2848;SDS011;59355;52.416;13.412;2022-12-18T15:53:25;27.97;;;19.60;;